Hovedside
METAR-TAF:

METAR-TAF

Lufthavner :

Mariehamn lufthavn

Mariehamn, Finland

breddegrad: 60-07N, lengdegrad: 019-54E, høyde over havet: 6 m

Gjeldene værobservasjon

Denne rapporten ble laget for 22 minutter siden, klokken 14:20 UTC
Vind 11 kt fra Sør-sørøst, skiftende mellom Øst-sørøst og Sør
Temperatur 28°C
Luftfuktighet 42%
Trykk 1013 hPa
Sikt 10 km eller mer
ingen skyer under 1500 m og ingen bygeskyer

METAR: EFMA 181420Z 16011KT 120V180 CAVOK 28/14 Q1013

Tid: 17:42 (14:42 UTC)

Varsel

Denne rapporten ble laget for 3 timer og 7 minutter siden, klokken 11:35 UTC
Varsel gyldig fra 18. klokken 12 UTC til 18. klokken 21 UTC
Vind 6 kt fra Øst-sørøst
Sikt 10 km eller mer
ingen skyer under 1500 m og ingen bygeskyer

TAF: EFMA 181135Z 1812/1821 11006KT CAVOK

Værobservasjoner og værvarsel for over 4000 flyplasser (METAR- og TAF-rapporter).

Tilgjengelige stasjoner er representert av de røde og gule prikkene på kartet.

Hold musepekeren over prikken for å se navnet på stasjonen.

Klikk så for å se værobservasjoner og -varsler.

For å forandre kartet kan du klikke på den grønne knappen med svart kryss for å zoome inn, på den grønne knappen med strek for å zoome ut, eller på de grønne pilene for å se tilstøtende kart.


METAR-TAF: